createdAt,value
2022-11-05T00:03:34.782Z,1.63
2022-11-05T00:08:35.966Z,2.07
2022-11-05T00:13:39.529Z,1.90
2022-11-05T00:18:25.164Z,1.80
2022-11-05T00:23:26.243Z,1.33
2022-11-05T00:28:09.737Z,1.00
2022-11-05T00:32:54.220Z,0.80
2022-11-05T00:37:39.346Z,0.70
2022-11-05T00:42:40.180Z,1.00
2022-11-05T00:47:41.220Z,0.83
2022-11-05T00:52:38.474Z,1.50
2022-11-05T00:57:23.363Z,1.03
2022-11-05T01:02:07.113Z,1.00
2022-11-05T01:06:50.960Z,1.00
2022-11-05T01:11:34.517Z,1.00
2022-11-05T01:16:19.457Z,1.00
2022-11-05T01:21:12.075Z,1.00
2022-11-05T01:25:55.706Z,1.00
2022-11-05T01:30:39.898Z,1.23
2022-11-05T01:35:25.202Z,0.93
2022-11-05T01:40:10.555Z,1.23
2022-11-05T01:45:00.369Z,1.00
2022-11-05T01:49:44.019Z,0.90
2022-11-05T01:54:33.390Z,0.93
2022-11-05T01:59:20.402Z,1.00
2022-11-05T02:04:07.913Z,0.80
2022-11-05T02:08:58.572Z,1.00
2022-11-05T02:13:43.502Z,1.00
2022-11-05T02:18:38.673Z,0.70
2022-11-05T02:24:03.004Z,0.93
2022-11-05T02:29:18.104Z,0.87
2022-11-05T02:34:12.629Z,0.90
2022-11-05T02:39:09.737Z,1.07
2022-11-05T02:44:06.354Z,1.20
2022-11-05T02:48:57.065Z,1.00
2022-11-05T02:53:47.926Z,0.63
2022-11-05T02:58:31.829Z,0.60
2022-11-05T03:03:24.076Z,0.70
2022-11-05T03:08:15.203Z,0.50
2022-11-05T03:13:17.402Z,0.40
2022-11-05T03:18:09.834Z,0.60
2022-11-05T03:22:58.953Z,0.60
2022-11-05T03:27:47.415Z,0.60
2022-11-05T03:32:35.431Z,0.70
2022-11-05T03:37:21.951Z,0.60
2022-11-05T03:42:09.070Z,0.70
2022-11-05T03:46:54.329Z,0.67
2022-11-05T03:51:44.458Z,0.80
2022-11-05T03:56:33.933Z,0.80
2022-11-05T04:01:17.845Z,0.77
2022-11-05T04:06:19.189Z,0.80
2022-11-05T04:11:21.456Z,0.60
2022-11-05T04:16:22.456Z,0.90
2022-11-05T04:21:23.944Z,0.80
2022-11-05T04:26:08.818Z,0.80
2022-11-05T04:30:52.234Z,1.17
2022-11-05T04:35:37.665Z,1.00
2022-11-05T04:40:21.198Z,1.00
2022-11-05T04:45:06.822Z,1.00
2022-11-05T04:49:50.456Z,1.17
2022-11-05T04:54:33.858Z,1.27
2022-11-05T04:59:17.484Z,1.90
2022-11-05T05:04:02.359Z,2.20
2022-11-05T05:08:45.841Z,1.67
2022-11-05T05:13:29.294Z,1.60
2022-11-05T05:18:12.811Z,2.27
2022-11-05T05:22:57.820Z,2.00
2022-11-05T05:27:41.252Z,1.43
2022-11-05T05:32:24.987Z,1.00
2022-11-05T05:37:08.771Z,1.90
2022-11-05T05:41:53.643Z,1.90
2022-11-05T05:46:37.059Z,1.40
2022-11-05T05:51:21.377Z,1.67
2022-11-05T05:56:05.872Z,1.80
2022-11-05T06:00:50.834Z,1.97
2022-11-05T06:05:34.282Z,1.83
2022-11-05T06:10:18.135Z,1.87
2022-11-05T06:15:01.630Z,2.00
2022-11-05T06:19:46.679Z,2.20
2022-11-05T06:24:30.296Z,2.00
2022-11-05T06:29:13.755Z,2.37
2022-11-05T06:33:57.440Z,2.50
2022-11-05T06:38:42.323Z,2.50
2022-11-05T06:43:25.825Z,3.37
2022-11-05T06:48:09.450Z,3.90
2022-11-05T06:52:56.948Z,3.27
2022-11-05T06:57:41.883Z,2.80
2022-11-05T07:02:25.434Z,3.47
2022-11-05T07:07:09.216Z,3.43
2022-11-05T07:11:52.918Z,2.87
2022-11-05T07:16:37.785Z,3.77
2022-11-05T07:21:21.284Z,3.30
2022-11-05T07:26:05.012Z,3.13
2022-11-05T07:30:49.548Z,2.10
2022-11-05T07:35:34.431Z,1.80
2022-11-05T07:40:19.631Z,1.70
2022-11-05T07:45:03.153Z,1.27
2022-11-05T07:49:46.750Z,1.67
2022-11-05T07:54:31.632Z,1.43
2022-11-05T07:59:15.352Z,1.40
2022-11-05T08:03:58.863Z,1.70
2022-11-05T08:08:42.739Z,1.13
2022-11-05T08:13:27.698Z,1.10
2022-11-05T08:18:13.524Z,1.40
2022-11-05T08:22:57.128Z,1.70
2022-11-05T08:27:40.930Z,1.50
2022-11-05T08:32:25.779Z,1.70
2022-11-05T08:37:09.430Z,1.63
2022-11-05T08:41:52.955Z,1.50
2022-11-05T08:46:41.442Z,1.70
2022-11-05T08:51:26.812Z,1.40
2022-11-05T08:56:10.632Z,1.20
2022-11-05T09:00:54.366Z,1.43
2022-11-05T09:05:39.984Z,1.43
2022-11-05T09:10:25.205Z,2.10
2022-11-05T09:15:09.882Z,2.07
2022-11-05T09:19:53.505Z,2.50
2022-11-05T09:24:36.987Z,2.10
2022-11-05T09:29:22.178Z,2.73
2022-11-05T09:34:05.697Z,2.43
2022-11-05T09:38:49.156Z,2.43
2022-11-05T09:43:37.782Z,3.03
2022-11-05T09:48:26.278Z,2.90
2022-11-05T09:53:12.563Z,3.03
2022-11-05T09:58:00.794Z,2.90
2022-11-05T10:02:49.673Z,3.77
2022-11-05T10:07:43.651Z,2.03
2022-11-05T10:12:32.486Z,3.77
2022-11-05T10:17:21.520Z,2.47
2022-11-05T10:22:13.338Z,1.90
2022-11-05T10:26:58.978Z,2.00
2022-11-05T10:31:43.660Z,1.50
2022-11-05T10:36:29.673Z,1.40
2022-11-05T10:41:32.605Z,1.60
2022-11-05T10:46:29.961Z,1.83
2022-11-05T10:51:15.053Z,1.87
2022-11-05T10:55:59.606Z,3.30
2022-11-05T11:01:20.644Z,3.10
2022-11-05T11:06:07.969Z,1.40
2022-11-05T11:10:53.279Z,1.00
2022-11-05T11:15:37.592Z,0.70
2022-11-05T11:20:27.904Z,1.23
2022-11-05T11:25:27.120Z,0.50
2022-11-05T11:30:19.937Z,0.70
2022-11-05T11:35:04.081Z,1.10
2022-11-05T11:39:51.570Z,0.70
2022-11-05T11:44:44.515Z,0.40
2022-11-05T11:49:33.583Z,0.60
2022-11-05T11:54:23.905Z,0.50
2022-11-05T11:59:35.091Z,0.53
2022-11-05T12:04:49.490Z,1.57
2022-11-05T12:09:51.461Z,0.70
2022-11-05T12:14:46.232Z,0.47
2022-11-05T12:19:45.948Z,0.30
2022-11-05T12:24:54.585Z,0.47
2022-11-05T12:29:51.189Z,0.50
2022-11-05T12:34:52.025Z,0.70
2022-11-05T12:39:50.460Z,3.33
2022-11-05T12:44:49.477Z,1.27
2022-11-05T12:49:44.225Z,0.60
2022-11-05T12:54:45.592Z,0.40
2022-11-05T12:59:35.850Z,1.00
2022-11-05T13:04:30.596Z,0.50
2022-11-05T13:09:19.970Z,0.87
2022-11-05T13:14:11.418Z,1.00
2022-11-05T13:19:02.955Z,1.00
2022-11-05T13:23:51.400Z,0.80
2022-11-05T13:28:47.398Z,0.80
2022-11-05T13:33:35.097Z,0.77
2022-11-05T13:38:42.170Z,0.70
2022-11-05T13:44:01.326Z,0.73
2022-11-05T13:49:22.379Z,0.80
2022-11-05T13:54:33.381Z,0.90
2022-11-05T13:59:53.802Z,1.00
2022-11-05T14:04:42.949Z,0.63
2022-11-05T14:09:28.661Z,0.63
2022-11-05T14:14:21.530Z,0.90
2022-11-05T14:19:31.185Z,0.70
2022-11-05T14:24:40.282Z,0.63
2022-11-05T14:29:26.257Z,0.70
2022-11-05T14:34:22.623Z,0.80
2022-11-05T14:39:33.144Z,1.00
2022-11-05T14:44:17.196Z,0.80
2022-11-05T14:49:09.504Z,0.90
2022-11-05T14:54:02.573Z,1.20
2022-11-05T14:58:48.396Z,1.43
2022-11-05T15:04:07.624Z,1.00
2022-11-05T15:09:05.313Z,0.80
2022-11-05T15:13:59.127Z,1.40
2022-11-05T15:18:47.213Z,1.60
2022-11-05T15:23:41.030Z,1.37
2022-11-05T15:28:36.311Z,1.00
2022-11-05T15:33:24.161Z,1.30
2022-11-05T15:38:27.839Z,2.10
2022-11-05T15:43:21.078Z,2.10
2022-11-05T15:48:14.899Z,3.30
2022-11-05T15:53:20.761Z,2.00
2022-11-05T15:58:08.244Z,2.70
2022-11-05T16:02:56.539Z,5.20
2022-11-05T16:07:44.322Z,2.17
2022-11-05T16:12:33.924Z,1.70
2022-11-05T16:17:22.432Z,1.97
2022-11-05T16:22:07.380Z,2.33
2022-11-05T16:27:04.184Z,2.53
2022-11-05T16:31:54.632Z,2.50
2022-11-05T16:36:38.996Z,1.80
2022-11-05T16:41:24.355Z,2.00
2022-11-05T16:46:11.713Z,1.50
2022-11-05T16:50:57.948Z,1.77
2022-11-05T16:55:45.067Z,1.90
2022-11-05T17:00:30.366Z,1.93
2022-11-05T17:05:23.712Z,2.60
2022-11-05T17:10:11.142Z,2.53
2022-11-05T17:14:56.436Z,3.10
2022-11-05T17:19:42.986Z,2.40
2022-11-05T17:24:28.102Z,3.00
2022-11-05T17:29:14.276Z,4.20
2022-11-05T17:33:59.518Z,4.57
2022-11-05T17:38:44.714Z,3.40
2022-11-05T17:43:30.556Z,3.50
2022-11-05T17:48:17.942Z,3.90
2022-11-05T17:53:02.416Z,4.27
2022-11-05T17:57:49.055Z,3.70
2022-11-05T18:02:34.612Z,4.33
2022-11-05T18:07:20.733Z,3.77
2022-11-05T18:12:05.435Z,5.27
2022-11-05T18:16:50.464Z,4.13
2022-11-05T18:21:35.340Z,4.53
2022-11-05T18:26:21.575Z,3.57
2022-11-05T18:31:08.448Z,3.70
2022-11-05T18:35:53.378Z,3.40
2022-11-05T18:40:38.076Z,10.30
2022-11-05T18:45:29.729Z,5.87
2022-11-05T18:50:15.514Z,5.53
2022-11-05T18:55:02.045Z,7.30
2022-11-05T18:59:47.673Z,7.50
2022-11-05T19:04:34.206Z,8.93
2022-11-05T19:09:22.653Z,11.37
2022-11-05T19:14:08.009Z,20.00
2022-11-05T19:18:53.051Z,13.67
2022-11-05T19:23:40.130Z,9.17
2022-11-05T19:28:25.496Z,14.47
2022-11-05T19:33:11.764Z,19.40
2022-11-05T19:37:57.302Z,22.47
2022-11-05T19:42:44.280Z,14.90
2022-11-05T19:47:29.499Z,10.50
2022-11-05T19:52:14.397Z,8.50
2022-11-05T19:56:58.859Z,6.50
2022-11-05T20:01:45.760Z,7.67
2022-11-05T20:06:33.775Z,13.70
2022-11-05T20:11:19.114Z,13.30
2022-11-05T20:16:05.624Z,6.37
2022-11-05T20:21:02.401Z,8.93
2022-11-05T20:25:47.413Z,8.40
2022-11-05T20:30:33.644Z,7.20
2022-11-05T20:35:19.143Z,9.90
2022-11-05T20:40:05.453Z,6.00
2022-11-05T20:44:51.893Z,6.97
2022-11-05T20:49:36.344Z,10.60
2022-11-05T20:54:22.259Z,6.60
2022-11-05T20:59:08.637Z,6.60
2022-11-05T21:03:53.668Z,4.83
2022-11-05T21:08:38.909Z,5.03
2022-11-05T21:13:23.534Z,15.13
2022-11-05T21:18:23.216Z,13.30
2022-11-05T21:23:08.915Z,5.93
2022-11-05T21:27:55.532Z,19.10
2022-11-05T21:32:39.987Z,14.07
2022-11-05T21:37:26.787Z,8.37
2022-11-05T21:42:10.833Z,8.83
2022-11-05T21:46:59.388Z,8.20
2022-11-05T21:52:01.222Z,7.70
2022-11-05T21:57:01.365Z,5.00
2022-11-05T22:01:45.568Z,5.87
2022-11-05T22:06:29.250Z,6.07
2022-11-05T22:11:13.088Z,5.03
2022-11-05T22:15:58.506Z,5.03
2022-11-05T22:20:42.038Z,5.63
2022-11-05T22:25:25.840Z,10.30
2022-11-05T22:30:10.310Z,9.37
2022-11-05T22:34:55.389Z,9.80
2022-11-05T22:39:39.010Z,9.50
2022-11-05T22:44:22.740Z,8.40
2022-11-05T22:49:07.364Z,8.40
2022-11-05T22:53:57.950Z,7.10
2022-11-05T22:58:42.838Z,5.60
2022-11-05T23:03:27.298Z,5.97
2022-11-05T23:08:28.599Z,5.70
2022-11-05T23:13:13.566Z,6.73
2022-11-05T23:18:15.237Z,6.30
2022-11-05T23:23:17.544Z,6.53
2022-11-05T23:28:03.266Z,6.63
2022-11-05T23:32:48.797Z,6.23
2022-11-05T23:37:51.025Z,4.70
2022-11-05T23:42:52.261Z,4.13
2022-11-05T23:47:53.621Z,4.83
2022-11-05T23:52:38.522Z,4.77
2022-11-05T23:57:22.159Z,4.60
